createdAt,value
2019-01-03T00:02:43.389Z,1.50
2019-01-03T00:05:34.110Z,1.60
2019-01-03T00:08:07.929Z,1.60
2019-01-03T00:10:53.504Z,1.60
2019-01-03T00:13:46.243Z,1.60
2019-01-03T00:16:23.671Z,1.60
2019-01-03T00:18:56.093Z,1.50
2019-01-03T00:21:30.453Z,1.50
2019-01-03T00:24:11.868Z,1.50
2019-01-03T00:26:44.352Z,1.50
2019-01-03T00:29:32.877Z,1.40
2019-01-03T00:32:06.405Z,1.40
2019-01-03T00:35:40.340Z,1.30
2019-01-03T00:38:16.726Z,1.30
2019-01-03T00:41:09.330Z,1.40
2019-01-03T00:43:42.888Z,1.50
2019-01-03T00:46:21.331Z,1.60
2019-01-03T00:49:00.651Z,1.60
2019-01-03T00:51:34.718Z,1.40
2019-01-03T00:54:41.557Z,1.30
2019-01-03T00:57:16.501Z,1.40
2019-01-03T00:59:50.844Z,1.30
2019-01-03T01:02:24.329Z,1.30
2019-01-03T01:04:57.951Z,1.40
2019-01-03T01:07:31.512Z,1.50
2019-01-03T01:10:06.779Z,1.50
2019-01-03T01:14:43.985Z,1.30
2019-01-03T01:17:23.437Z,1.30
2019-01-03T01:19:57.004Z,1.20
2019-01-03T01:22:34.329Z,1.20
2019-01-03T01:25:08.745Z,1.20
2019-01-03T01:28:42.721Z,1.30
2019-01-03T01:31:26.140Z,1.30
2019-01-03T01:33:59.874Z,1.50
2019-01-03T01:36:35.189Z,1.70
2019-01-03T01:41:14.229Z,1.80
2019-01-03T01:45:50.756Z,1.80
2019-01-03T01:48:23.251Z,1.90
2019-01-03T01:50:56.885Z,1.90
2019-01-03T01:53:30.689Z,1.90
2019-01-03T01:56:04.282Z,2.00
2019-01-03T01:58:40.745Z,1.90
2019-01-03T02:01:17.297Z,1.90
2019-01-03T02:03:49.757Z,2.10
2019-01-03T02:06:40.357Z,2.00
2019-01-03T02:09:20.733Z,2.00
2019-01-03T02:11:54.403Z,2.20
2019-01-03T02:14:27.777Z,2.30
2019-01-03T02:17:02.190Z,2.40
2019-01-03T02:19:36.513Z,2.60
2019-01-03T02:22:13.975Z,2.50
2019-01-03T02:24:50.483Z,2.40
2019-01-03T02:27:24.809Z,2.40
2019-01-03T02:29:59.302Z,2.30
2019-01-03T02:32:33.649Z,2.30
2019-01-03T02:35:10.934Z,2.40
2019-01-03T02:37:53.484Z,2.40
2019-01-03T02:40:31.865Z,2.40
2019-01-03T02:43:06.191Z,2.40
2019-01-03T02:45:39.765Z,2.40
2019-01-03T02:48:16.197Z,2.40
2019-01-03T02:51:48.270Z,2.40
2019-01-03T02:54:24.596Z,2.40
2019-01-03T02:56:58.134Z,2.30
2019-01-03T02:59:31.891Z,2.40
2019-01-03T03:02:10.229Z,2.40
2019-01-03T03:04:50.425Z,2.40
2019-01-03T03:07:26.936Z,2.40
2019-01-03T03:10:00.593Z,2.40
2019-01-03T03:12:37.896Z,2.40
2019-01-03T03:15:11.667Z,2.40
2019-01-03T03:18:52.749Z,2.40
2019-01-03T03:23:30.852Z,2.30
2019-01-03T03:26:04.853Z,2.30
2019-01-03T03:30:42.658Z,2.30
2019-01-03T03:33:17.112Z,2.40
2019-01-03T03:35:49.628Z,2.30
2019-01-03T03:38:23.425Z,2.40
2019-01-03T03:40:57.210Z,2.40
2019-01-03T03:43:30.860Z,2.40
2019-01-03T03:48:11.709Z,2.20
2019-01-03T03:50:47.207Z,2.20
2019-01-03T03:53:20.845Z,2.20
2019-01-03T03:55:58.387Z,2.30
2019-01-03T03:58:32.664Z,2.30
2019-01-03T04:01:06.864Z,2.30
2019-01-03T04:03:47.059Z,2.30
2019-01-03T04:08:29.586Z,2.30
2019-01-03T04:12:06.702Z,2.30
2019-01-03T04:14:49.646Z,2.40
2019-01-03T04:18:20.996Z,2.40
2019-01-03T04:21:24.822Z,2.30
2019-01-03T04:24:04.365Z,2.40
2019-01-03T04:26:41.872Z,2.40
2019-01-03T04:29:15.467Z,2.50
2019-01-03T04:32:22.313Z,2.50
2019-01-03T04:37:01.281Z,2.50
2019-01-03T04:39:35.018Z,2.50
2019-01-03T04:42:09.622Z,2.50
2019-01-03T04:44:44.018Z,2.40
2019-01-03T04:47:21.629Z,2.30
2019-01-03T04:50:53.661Z,2.40
2019-01-03T04:55:33.743Z,2.40
2019-01-03T04:58:37.409Z,2.40
2019-01-03T05:01:22.261Z,2.40
2019-01-03T05:03:57.639Z,2.40
2019-01-03T05:06:33.102Z,2.40
2019-01-03T05:09:06.749Z,2.40
2019-01-03T05:11:41.240Z,2.40
2019-01-03T05:14:14.754Z,2.40
2019-01-03T05:16:48.106Z,2.40
2019-01-03T05:19:21.687Z,2.30
2019-01-03T05:23:00.711Z,2.20
2019-01-03T05:25:34.397Z,2.10
2019-01-03T05:28:06.857Z,2.30
2019-01-03T05:30:40.962Z,2.30
2019-01-03T05:33:17.337Z,2.40
2019-01-03T05:35:54.882Z,2.30
2019-01-03T05:38:34.418Z,2.30
2019-01-03T05:41:10.774Z,2.40
2019-01-03T05:43:47.255Z,2.40
2019-01-03T05:47:27.202Z,2.40
2019-01-03T05:51:01.393Z,2.40
2019-01-03T05:53:35.475Z,2.40
2019-01-03T05:56:07.969Z,2.20
2019-01-03T05:58:41.259Z,2.30
2019-01-03T06:01:17.596Z,2.20
2019-01-03T06:03:55.034Z,2.00
2019-01-03T06:07:32.102Z,2.00
2019-01-03T06:10:05.765Z,2.10
2019-01-03T06:12:39.329Z,2.00
2019-01-03T06:16:16.428Z,2.00
2019-01-03T06:18:50.140Z,2.00
2019-01-03T06:21:22.606Z,1.90
2019-01-03T06:24:02.232Z,2.00
2019-01-03T06:26:35.817Z,2.10
2019-01-03T06:31:13.465Z,2.10
2019-01-03T06:33:52.874Z,2.20
2019-01-03T06:36:36.316Z,2.20
2019-01-03T06:39:12.694Z,2.10
2019-01-03T06:41:46.422Z,2.10
2019-01-03T06:46:26.195Z,2.10
2019-01-03T06:48:58.838Z,2.10
2019-01-03T06:51:35.206Z,2.10
2019-01-03T06:55:12.236Z,2.00
2019-01-03T06:58:45.351Z,2.10
2019-01-03T07:03:27.633Z,2.30
2019-01-03T07:06:21.113Z,2.40
2019-01-03T07:08:54.846Z,2.40
2019-01-03T07:12:05.124Z,2.60
2019-01-03T07:14:42.483Z,2.40
2019-01-03T07:17:15.621Z,2.40
2019-01-03T07:19:49.121Z,2.20
2019-01-03T07:22:25.664Z,2.10
2019-01-03T07:24:59.189Z,2.10
2019-01-03T07:27:32.817Z,2.00
2019-01-03T07:30:22.333Z,2.10
2019-01-03T07:32:55.994Z,2.00
2019-01-03T07:35:30.282Z,2.10
2019-01-03T07:38:03.877Z,2.10
2019-01-03T07:40:39.254Z,2.10
2019-01-03T07:43:15.742Z,2.20
2019-01-03T07:45:52.101Z,2.30
2019-01-03T07:48:24.613Z,2.30
2019-01-03T07:50:59.081Z,2.40
2019-01-03T07:55:37.127Z,2.30
2019-01-03T07:58:10.797Z,2.20
2019-01-03T08:00:44.527Z,2.30
2019-01-03T08:03:17.009Z,2.40
2019-01-03T08:05:50.625Z,2.40
2019-01-03T08:08:23.081Z,2.30
2019-01-03T08:10:56.473Z,2.40
2019-01-03T08:15:32.632Z,2.50
2019-01-03T08:18:06.293Z,2.40
2019-01-03T08:20:39.997Z,2.40
2019-01-03T08:23:12.526Z,2.20
2019-01-03T08:25:45.948Z,2.20
2019-01-03T08:29:18.662Z,2.30
2019-01-03T08:31:54.073Z,2.30
2019-01-03T08:34:27.750Z,2.40
2019-01-03T08:37:01.377Z,2.50
2019-01-03T08:39:35.099Z,2.60
2019-01-03T08:42:08.729Z,2.50
2019-01-03T08:45:00.424Z,2.60
2019-01-03T08:47:34.002Z,2.70
2019-01-03T08:50:07.621Z,2.80
2019-01-03T08:52:41.612Z,3.00
2019-01-03T08:55:15.982Z,3.00
2019-01-03T08:57:49.643Z,2.90
2019-01-03T09:01:27.757Z,3.00
2019-01-03T09:04:01.501Z,3.00
2019-01-03T09:06:40.058Z,3.20
2019-01-03T09:09:13.640Z,3.30
2019-01-03T09:13:55.828Z,3.30
2019-01-03T09:16:28.363Z,3.50
2019-01-03T09:19:02.799Z,3.50
2019-01-03T09:21:38.282Z,3.50
2019-01-03T09:24:11.970Z,3.40
2019-01-03T09:26:44.461Z,3.40
2019-01-03T09:29:18.231Z,3.30
2019-01-03T09:31:56.689Z,3.20
2019-01-03T09:34:30.404Z,3.20
2019-01-03T09:37:04.914Z,2.90
2019-01-03T09:39:43.478Z,3.00
2019-01-03T09:43:18.136Z,3.00
2019-01-03T09:45:46.432Z,3.00
2019-01-03T09:48:14.674Z,3.00
2019-01-03T09:50:42.908Z,3.00
2019-01-03T09:53:11.141Z,3.00
2019-01-03T09:55:40.049Z,3.20
2019-01-03T09:58:08.465Z,3.10
2019-01-03T10:00:37.742Z,3.10
2019-01-03T10:03:06.033Z,3.10
2019-01-03T10:05:34.293Z,3.10
2019-01-03T10:08:02.485Z,3.10
2019-01-03T10:10:30.705Z,3.10
2019-01-03T10:12:58.952Z,3.00
2019-01-03T10:15:27.795Z,3.10
2019-01-03T10:17:56.029Z,3.10
2019-01-03T10:20:24.216Z,3.20
2019-01-03T10:22:52.930Z,3.10
2019-01-03T10:25:21.151Z,3.00
2019-01-03T10:27:49.581Z,3.10
2019-01-03T10:30:17.873Z,3.00
2019-01-03T10:32:46.153Z,2.90
2019-01-03T10:35:15.465Z,3.10
2019-01-03T10:37:43.716Z,3.10
2019-01-03T10:40:11.941Z,3.20
2019-01-03T10:42:40.164Z,3.20
2019-01-03T10:45:09.532Z,3.20
2019-01-03T10:47:38.398Z,3.20
2019-01-03T10:50:06.805Z,3.20
2019-01-03T10:52:35.093Z,3.30
2019-01-03T10:55:10.023Z,3.40
2019-01-03T10:57:38.244Z,3.40
2019-01-03T11:00:06.616Z,3.60
2019-01-03T11:02:34.965Z,3.60
2019-01-03T11:05:03.732Z,3.60
2019-01-03T11:07:32.016Z,3.70
2019-01-03T11:10:00.255Z,3.70
2019-01-03T11:12:29.201Z,3.80
2019-01-03T11:14:57.498Z,3.90
2019-01-03T11:17:25.701Z,3.80
2019-01-03T11:19:53.949Z,3.70
2019-01-03T11:22:22.237Z,3.70
2019-01-03T11:24:50.466Z,3.80
2019-01-03T11:27:18.719Z,3.90
2019-01-03T11:29:46.934Z,3.90
2019-01-03T11:32:15.741Z,4.00
2019-01-03T11:34:43.998Z,4.20
2019-01-03T11:37:12.307Z,4.20
2019-01-03T11:39:40.635Z,4.30
2019-01-03T11:42:08.881Z,4.20
2019-01-03T11:44:37.132Z,4.20
2019-01-03T11:47:05.365Z,4.10
2019-01-03T11:49:33.658Z,3.90
2019-01-03T11:52:01.934Z,3.80
2019-01-03T11:54:30.850Z,4.00
2019-01-03T11:56:59.181Z,4.20
2019-01-03T11:59:27.446Z,4.00
2019-01-03T12:01:56.308Z,3.90
2019-01-03T12:04:24.638Z,3.70
2019-01-03T12:06:52.847Z,3.80
2019-01-03T12:09:21.070Z,3.60
2019-01-03T12:11:49.317Z,3.50
2019-01-03T12:14:17.571Z,3.70
2019-01-03T12:16:45.806Z,3.60
2019-01-03T12:19:14.114Z,3.50
2019-01-03T12:21:42.406Z,3.40
2019-01-03T12:24:10.670Z,3.30
2019-01-03T12:26:38.913Z,3.30
2019-01-03T12:29:07.205Z,3.40
2019-01-03T12:31:35.466Z,3.50
2019-01-03T12:34:03.786Z,3.60
2019-01-03T12:36:32.011Z,3.80
2019-01-03T12:39:00.927Z,3.90
2019-01-03T12:41:29.183Z,4.00
2019-01-03T12:43:57.456Z,3.90
2019-01-03T12:46:25.660Z,3.80
2019-01-03T12:48:53.960Z,3.80
2019-01-03T12:51:22.197Z,3.80
2019-01-03T12:53:50.452Z,3.60
2019-01-03T12:56:18.772Z,3.70
2019-01-03T12:58:47.051Z,3.90
2019-01-03T13:01:16.032Z,4.00
2019-01-03T13:03:44.360Z,4.00
2019-01-03T13:06:12.621Z,4.00
2019-01-03T13:08:40.916Z,4.00
2019-01-03T13:11:09.664Z,3.90
2019-01-03T13:13:37.963Z,4.00
2019-01-03T13:16:06.262Z,4.00
2019-01-03T13:18:34.597Z,4.10
2019-01-03T13:21:02.930Z,4.20
2019-01-03T13:23:31.337Z,4.10
2019-01-03T13:25:59.581Z,4.10
2019-01-03T13:28:27.793Z,4.20
2019-01-03T13:30:56.066Z,4.20
2019-01-03T13:33:25.165Z,4.20
2019-01-03T13:35:53.555Z,4.30
2019-01-03T13:38:21.777Z,4.50
2019-01-03T13:40:50.055Z,4.50
2019-01-03T13:43:18.281Z,4.60
2019-01-03T13:45:47.426Z,4.60
2019-01-03T13:48:15.915Z,4.60
2019-01-03T13:50:44.177Z,4.70
2019-01-03T13:53:12.501Z,4.70
2019-01-03T13:55:40.990Z,4.70
2019-01-03T13:58:09.196Z,4.60
2019-01-03T14:00:37.526Z,4.70
2019-01-03T14:03:05.851Z,4.60
2019-01-03T14:05:34.049Z,4.60
2019-01-03T14:08:02.275Z,4.50
2019-01-03T14:10:31.133Z,4.40
2019-01-03T14:12:59.441Z,4.40
2019-01-03T14:15:28.663Z,4.50
2019-01-03T14:17:56.824Z,4.60
2019-01-03T14:20:25.069Z,4.60
2019-01-03T14:22:53.448Z,4.50
2019-01-03T14:25:21.691Z,4.40
2019-01-03T14:27:49.909Z,4.40
2019-01-03T14:30:18.173Z,4.40
2019-01-03T14:32:46.437Z,4.30
2019-01-03T14:35:14.742Z,4.10
2019-01-03T14:37:43.053Z,4.10
2019-01-03T14:40:12.860Z,4.10
2019-01-03T14:42:41.661Z,4.10
2019-01-03T14:45:09.901Z,4.10
2019-01-03T14:47:38.208Z,4.00
2019-01-03T14:50:08.665Z,3.90
2019-01-03T14:52:37.009Z,3.90
2019-01-03T14:55:05.600Z,3.80
2019-01-03T14:57:33.824Z,3.80
2019-01-03T15:00:02.177Z,3.90
2019-01-03T15:02:31.120Z,3.90
2019-01-03T15:04:59.489Z,3.90
2019-01-03T15:07:27.710Z,3.80
2019-01-03T15:09:55.925Z,3.80
2019-01-03T15:12:24.177Z,3.90
2019-01-03T15:14:52.425Z,3.80
2019-01-03T15:17:20.770Z,3.60
2019-01-03T15:19:49.048Z,3.50
2019-01-03T15:22:18.255Z,3.40
2019-01-03T15:24:46.512Z,3.40
2019-01-03T15:27:14.746Z,3.50
2019-01-03T15:29:42.987Z,3.60
2019-01-03T15:32:11.173Z,3.60
2019-01-03T15:34:40.417Z,3.60
2019-01-03T15:37:09.649Z,3.70
2019-01-03T15:39:37.977Z,3.70
2019-01-03T15:42:06.232Z,3.60
2019-01-03T15:44:35.548Z,3.60
2019-01-03T15:47:03.751Z,3.60
2019-01-03T15:49:32.165Z,3.50
2019-01-03T15:52:00.548Z,3.50
2019-01-03T15:54:28.805Z,3.50
2019-01-03T15:56:57.793Z,3.20
2019-01-03T15:59:26.326Z,3.30
2019-01-03T16:01:54.541Z,3.40
2019-01-03T16:04:22.781Z,3.40
2019-01-03T16:06:51.069Z,3.40
2019-01-03T16:09:19.333Z,3.40
2019-01-03T16:11:47.573Z,3.40
2019-01-03T16:14:15.824Z,3.40
2019-01-03T16:16:44.109Z,3.50
2019-01-03T16:19:12.426Z,3.50
2019-01-03T16:21:40.675Z,3.50
2019-01-03T16:24:09.870Z,3.50
2019-01-03T16:26:38.085Z,3.40
2019-01-03T16:29:06.333Z,3.30
2019-01-03T16:31:34.651Z,3.30
2019-01-03T16:34:03.542Z,3.30
2019-01-03T16:36:31.781Z,3.20
2019-01-03T16:39:00.026Z,3.10
2019-01-03T16:41:28.294Z,3.10
2019-01-03T16:43:56.524Z,3.10
2019-01-03T16:46:24.806Z,3.10
2019-01-03T16:48:53.145Z,3.20
2019-01-03T16:51:21.402Z,3.10
2019-01-03T16:53:49.655Z,3.10
2019-01-03T16:56:17.911Z,3.20
2019-01-03T16:58:46.535Z,3.20
2019-01-03T17:01:14.797Z,3.30
2019-01-03T17:03:44.071Z,3.30
2019-01-03T17:06:12.406Z,3.40
2019-01-03T17:08:40.669Z,3.30
2019-01-03T17:11:08.957Z,3.20
2019-01-03T17:13:37.234Z,3.20
2019-01-03T17:16:06.505Z,3.20
2019-01-03T17:18:35.037Z,3.20
2019-01-03T17:21:03.263Z,3.30
2019-01-03T17:23:31.551Z,3.30
2019-01-03T17:25:59.801Z,3.40
2019-01-03T17:28:28.088Z,3.40
2019-01-03T17:30:56.320Z,3.40
2019-01-03T17:33:25.172Z,3.30
2019-01-03T17:35:53.398Z,3.20
2019-01-03T17:38:21.694Z,3.20
2019-01-03T17:40:50.531Z,3.00
2019-01-03T17:43:18.777Z,3.00
2019-01-03T17:45:47.917Z,3.10
2019-01-03T17:48:16.754Z,3.10
2019-01-03T17:50:45.186Z,3.20
2019-01-03T17:53:13.601Z,3.10
2019-01-03T17:55:41.842Z,3.10
2019-01-03T17:58:10.112Z,3.10
2019-01-03T18:00:39.313Z,3.10
2019-01-03T18:03:08.579Z,3.10
2019-01-03T18:05:36.937Z,3.20
2019-01-03T18:08:06.077Z,3.20
2019-01-03T18:10:34.412Z,3.20
2019-01-03T18:13:02.678Z,3.20
2019-01-03T18:15:30.895Z,3.20
2019-01-03T18:17:59.133Z,3.20
2019-01-03T18:20:27.409Z,3.10
2019-01-03T18:22:55.628Z,3.10
2019-01-03T18:25:23.915Z,3.00
2019-01-03T18:27:52.272Z,3.00
2019-01-03T18:30:20.553Z,3.00
2019-01-03T18:32:48.797Z,3.10
2019-01-03T18:35:17.065Z,3.20
2019-01-03T18:37:45.297Z,3.20
2019-01-03T18:40:15.234Z,3.30
2019-01-03T18:42:43.569Z,3.30
2019-01-03T18:45:16.002Z,3.30
2019-01-03T18:47:44.301Z,3.30
2019-01-03T18:50:18.681Z,3.30
2019-01-03T18:52:40.962Z,3.30
2019-01-03T18:55:09.844Z,3.30
2019-01-03T18:57:39.432Z,3.30
2019-01-03T19:00:09.029Z,3.30
2019-01-03T19:02:38.224Z,3.20
2019-01-03T19:05:06.562Z,3.30
2019-01-03T19:07:34.935Z,3.30
2019-01-03T19:10:03.303Z,3.40
2019-01-03T19:12:31.562Z,3.50
2019-01-03T19:14:59.906Z,3.50
2019-01-03T19:17:28.170Z,3.50
2019-01-03T19:19:56.387Z,3.50
2019-01-03T19:22:24.621Z,3.50
2019-01-03T19:24:52.940Z,3.40
2019-01-03T19:27:21.673Z,3.40
2019-01-03T19:29:49.909Z,3.40
2019-01-03T19:32:18.193Z,3.40
2019-01-03T19:34:46.407Z,3.30
2019-01-03T19:37:14.642Z,3.40
2019-01-03T19:39:43.299Z,3.40
2019-01-03T19:42:11.612Z,3.50
2019-01-03T19:44:39.841Z,3.50
2019-01-03T19:47:08.107Z,3.50
2019-01-03T19:49:36.364Z,3.40
2019-01-03T19:52:04.656Z,3.40
2019-01-03T19:54:32.941Z,3.50
2019-01-03T19:57:01.198Z,3.50
2019-01-03T19:59:29.525Z,3.60
2019-01-03T20:01:57.805Z,3.60
2019-01-03T20:04:26.151Z,3.70
2019-01-03T20:06:54.449Z,3.70
2019-01-03T20:09:23.650Z,3.80
2019-01-03T20:11:51.908Z,3.80
2019-01-03T20:14:20.208Z,3.70
2019-01-03T20:16:48.441Z,3.70
2019-01-03T20:19:16.650Z,3.70
2019-01-03T20:21:44.961Z,3.60
2019-01-03T20:24:13.194Z,3.60
2019-01-03T20:26:41.437Z,3.60
2019-01-03T20:29:09.719Z,3.60
2019-01-03T20:31:38.640Z,3.50
2019-01-03T20:34:07.517Z,3.60
2019-01-03T20:36:36.406Z,3.60
2019-01-03T20:39:05.173Z,3.60
2019-01-03T20:41:33.445Z,3.70
2019-01-03T20:44:01.794Z,3.70
2019-01-03T20:46:30.198Z,3.70
2019-01-03T20:48:58.538Z,3.70
2019-01-03T20:51:26.757Z,3.70
2019-01-03T20:53:55.548Z,3.70
2019-01-03T20:56:23.908Z,3.70
2019-01-03T20:58:52.136Z,3.70
2019-01-03T21:01:20.373Z,3.80
2019-01-03T21:03:48.586Z,3.90
2019-01-03T21:06:16.966Z,3.80
2019-01-03T21:08:45.217Z,3.80
2019-01-03T21:11:13.546Z,3.80
2019-01-03T21:13:41.824Z,3.70
2019-01-03T21:16:10.020Z,3.70
2019-01-03T21:18:38.297Z,3.60
2019-01-03T21:21:07.260Z,3.60
2019-01-03T21:23:35.512Z,3.60
2019-01-03T21:26:04.119Z,3.60
2019-01-03T21:28:32.366Z,3.60
2019-01-03T21:31:03.594Z,3.60
2019-01-03T21:33:32.625Z,3.50
2019-01-03T21:36:00.863Z,3.50
2019-01-03T21:38:29.121Z,3.50
2019-01-03T21:40:57.386Z,3.50
2019-01-03T21:43:25.648Z,3.40
2019-01-03T21:45:53.853Z,3.40
2019-01-03T21:48:22.177Z,3.30
2019-01-03T21:50:50.418Z,3.20
2019-01-03T21:53:18.681Z,3.20
2019-01-03T21:55:46.938Z,3.10
2019-01-03T21:58:15.774Z,3.00
2019-01-03T22:00:44.183Z,2.90
2019-01-03T22:03:12.424Z,2.90
2019-01-03T22:05:40.824Z,2.80
2019-01-03T22:08:09.124Z,2.90
2019-01-03T22:10:37.354Z,2.80
2019-01-03T22:13:05.583Z,2.70
2019-01-03T22:15:34.710Z,2.70
2019-01-03T22:18:02.996Z,2.70
2019-01-03T22:20:32.365Z,2.70
2019-01-03T22:23:00.596Z,2.70
2019-01-03T22:25:30.017Z,2.70
2019-01-03T22:27:58.262Z,2.70
2019-01-03T22:30:26.537Z,2.80
2019-01-03T22:32:54.804Z,2.70
2019-01-03T22:35:24.041Z,2.60
2019-01-03T22:37:52.312Z,2.60
2019-01-03T22:40:20.578Z,2.60
2019-01-03T22:42:48.827Z,2.60
2019-01-03T22:45:17.069Z,2.50
2019-01-03T22:47:45.256Z,2.60
2019-01-03T22:50:13.488Z,2.50
2019-01-03T22:52:41.740Z,2.40
2019-01-03T22:55:09.965Z,2.40
2019-01-03T22:57:38.188Z,2.50
2019-01-03T23:00:16.660Z,2.50
2019-01-03T23:02:45.510Z,2.40
2019-01-03T23:05:13.905Z,2.40
2019-01-03T23:07:42.171Z,2.40
2019-01-03T23:10:10.453Z,2.40
2019-01-03T23:12:38.688Z,2.40
2019-01-03T23:15:07.050Z,2.30
2019-01-03T23:17:36.065Z,2.30
2019-01-03T23:20:04.549Z,2.10
2019-01-03T23:22:32.798Z,2.10
2019-01-03T23:25:01.016Z,2.20
2019-01-03T23:27:30.149Z,2.20
2019-01-03T23:29:58.357Z,2.40
2019-01-03T23:32:27.498Z,2.40
2019-01-03T23:34:55.745Z,2.40
2019-01-03T23:37:23.949Z,2.30
2019-01-03T23:39:52.165Z,2.40
2019-01-03T23:42:20.477Z,2.30
2019-01-03T23:45:01.835Z,2.40
2019-01-03T23:47:30.850Z,2.40
2019-01-03T23:49:59.174Z,2.30
2019-01-03T23:52:27.434Z,2.30
2019-01-03T23:54:55.705Z,2.40
2019-01-03T23:57:24.009Z,2.40
2019-01-03T23:59:52.332Z,2.40
